createdAt,value
2018-12-03T00:00:50.125Z,10.1
2018-12-03T00:02:50.215Z,10.6
2018-12-03T00:04:49.618Z,10.6
2018-12-03T00:06:50.070Z,11.8
2018-12-03T00:08:50.173Z,12.6
2018-12-03T00:10:50.266Z,10.0
2018-12-03T00:12:50.280Z,10.8
2018-12-03T00:14:49.470Z,10.4
2018-12-03T00:16:49.955Z,10.4
2018-12-03T00:18:50.038Z,11.5
2018-12-03T00:20:50.061Z,11.6
2018-12-03T00:22:50.133Z,11.6
2018-12-03T00:24:50.220Z,11.1
2018-12-03T00:26:49.648Z,11.1
2018-12-03T00:28:49.850Z,11.0
2018-12-03T00:30:49.891Z,10.3
2018-12-03T00:32:49.983Z,10.7
2018-12-03T00:34:49.508Z,10.6
2018-12-03T00:36:49.999Z,10.6
2018-12-03T00:38:50.020Z,9.6
2018-12-03T00:40:50.038Z,10.4
2018-12-03T00:42:50.080Z,9.9
2018-12-03T00:44:50.401Z,9.9
2018-12-03T00:46:49.715Z,9.5
2018-12-03T00:48:49.827Z,10.3
2018-12-03T00:50:49.917Z,10.1
2018-12-03T00:52:49.895Z,10.1
2018-12-03T00:54:50.029Z,9.2
2018-12-03T00:56:50.215Z,8.6
2018-12-03T00:58:50.273Z,9.4
2018-12-03T01:00:50.284Z,7.9
2018-12-03T01:02:50.358Z,7.9
2018-12-03T01:04:49.816Z,7.3
2018-12-03T01:06:50.015Z,6.5
2018-12-03T01:08:50.136Z,5.8
2018-12-03T01:10:50.299Z,5.1
2018-12-03T01:12:49.567Z,3.7
2018-12-03T01:14:49.874Z,3.7
2018-12-03T01:16:50.253Z,2.3
2018-12-03T01:18:50.340Z,2.5
2018-12-03T01:20:49.449Z,2.1
2018-12-03T01:22:49.683Z,2.1
2018-12-03T01:24:49.704Z,1.8
2018-12-03T01:26:49.968Z,2.5
2018-12-03T01:28:50.080Z,1.9
2018-12-03T01:30:50.157Z,1.9
2018-12-03T01:32:50.332Z,1.9
2018-12-03T01:34:50.054Z,1.9
2018-12-03T01:36:50.279Z,2.2
2018-12-03T01:38:50.258Z,2.2
2018-12-03T01:40:49.479Z,2.1
2018-12-03T01:42:49.672Z,2.1
2018-12-03T01:44:49.702Z,2.4
2018-12-03T01:46:50.036Z,2.3
2018-12-03T01:48:50.109Z,3.4
2018-12-03T01:50:50.258Z,2.9
2018-12-03T01:52:50.327Z,2.9
2018-12-03T01:54:49.469Z,2.8
2018-12-03T01:56:49.885Z,2.8
2018-12-03T01:58:50.073Z,2.8
2018-12-03T02:00:50.169Z,2.4
2018-12-03T02:02:50.237Z,2.4
2018-12-03T02:04:49.978Z,3.7
2018-12-03T02:06:49.451Z,2.5
2018-12-03T02:08:49.658Z,2.5
2018-12-03T02:10:49.747Z,3.5
2018-12-03T02:12:50.086Z,3.5
2018-12-03T02:14:50.161Z,3.6
2018-12-03T02:16:49.586Z,2.8
2018-12-03T02:18:49.808Z,2.4
2018-12-03T02:20:49.904Z,2.4
2018-12-03T02:22:50.154Z,2.6
2018-12-03T02:24:50.296Z,3.0
2018-12-03T02:26:49.951Z,2.4
2018-12-03T02:28:50.134Z,2.4
2018-12-03T02:30:50.250Z,2.3
2018-12-03T02:32:49.657Z,2.3
2018-12-03T02:34:50.144Z,2.3
2018-12-03T02:36:50.224Z,2.1
2018-12-03T02:38:50.332Z,2.7
2018-12-03T02:40:49.465Z,2.7
2018-12-03T02:42:49.553Z,1.9
2018-12-03T02:44:49.573Z,1.7
2018-12-03T02:46:50.081Z,2.7
2018-12-03T02:48:50.194Z,2.9
2018-12-03T02:50:50.294Z,2.9
2018-12-03T02:52:50.320Z,4.8
2018-12-03T02:54:49.557Z,3.2
2018-12-03T02:56:50.063Z,3.2
2018-12-03T02:58:50.058Z,2.5
2018-12-03T03:00:50.272Z,2.5
2018-12-03T03:02:50.336Z,4.4
2018-12-03T03:04:49.973Z,5.4
2018-12-03T03:06:50.402Z,4.0
2018-12-03T03:08:49.626Z,4.0
2018-12-03T03:10:49.726Z,2.2
2018-12-03T03:12:49.968Z,2.2
2018-12-03T03:14:50.074Z,1.9
2018-12-03T03:16:50.311Z,1.3
2018-12-03T03:18:49.461Z,1.3
2018-12-03T03:20:49.725Z,1.2
2018-12-03T03:22:49.767Z,1.2
2018-12-03T03:24:49.949Z,1.2
2018-12-03T03:26:50.194Z,1.0
2018-12-03T03:28:50.362Z,1.0
2018-12-03T03:30:50.344Z,0.9
2018-12-03T03:32:49.589Z,1.3
2018-12-03T03:34:50.291Z,1.3
2018-12-03T03:36:49.587Z,1.3
2018-12-03T03:38:49.717Z,1.3
2018-12-03T03:40:49.862Z,0.9
2018-12-03T03:42:49.973Z,1.1
2018-12-03T03:44:50.240Z,1.2
2018-12-03T03:46:49.768Z,1.9
2018-12-03T03:48:49.833Z,1.9
2018-12-03T03:50:49.940Z,1.9
2018-12-03T03:52:49.980Z,1.2
2018-12-03T03:54:50.039Z,2.2
2018-12-03T03:56:50.319Z,4.6
2018-12-03T03:58:50.410Z,4.6
2018-12-03T04:00:49.586Z,1.5
2018-12-03T04:02:49.744Z,1.3
2018-12-03T04:04:50.061Z,1.7
2018-12-03T04:06:50.311Z,1.7
2018-12-03T04:08:49.496Z,1.3
2018-12-03T04:10:49.619Z,1.1
2018-12-03T04:12:49.853Z,1.0
2018-12-03T04:14:49.942Z,1.0
2018-12-03T04:16:50.352Z,1.0
2018-12-03T04:18:49.536Z,1.0
2018-12-03T04:20:49.931Z,0.8
2018-12-03T04:22:50.038Z,0.8
2018-12-03T04:24:50.114Z,0.8
2018-12-03T04:26:49.466Z,0.8
2018-12-03T04:28:49.627Z,2.8
2018-12-03T04:30:49.778Z,1.0
2018-12-03T04:32:49.912Z,1.1
2018-12-03T04:34:50.359Z,1.1
2018-12-03T04:36:49.735Z,1.6
2018-12-03T04:38:49.920Z,1.4
2018-12-03T04:40:49.992Z,1.7
2018-12-03T04:42:50.080Z,1.5
2018-12-03T04:44:50.130Z,1.5
2018-12-03T04:46:49.544Z,1.6
2018-12-03T04:48:49.753Z,1.6
2018-12-03T04:50:49.886Z,1.6
2018-12-03T04:52:50.042Z,1.6
2018-12-03T04:54:50.161Z,2.6
2018-12-03T04:56:49.663Z,2.6
2018-12-03T04:58:49.680Z,2.2
2018-12-03T05:00:49.896Z,2.3
2018-12-03T05:02:49.886Z,1.9
2018-12-03T05:04:50.240Z,1.9
2018-12-03T05:06:49.860Z,2.7
2018-12-03T05:08:49.439Z,2.4
2018-12-03T05:10:49.557Z,2.0
2018-12-03T05:12:49.753Z,2.7
2018-12-03T05:14:49.856Z,2.7
2018-12-03T05:16:50.095Z,3.0
2018-12-03T05:18:50.165Z,2.8
2018-12-03T05:20:50.281Z,2.6
2018-12-03T05:22:50.422Z,2.6
2018-12-03T05:24:49.664Z,2.6
2018-12-03T05:26:49.770Z,4.1
2018-12-03T05:28:49.999Z,2.2
2018-12-03T05:30:50.126Z,2.5
2018-12-03T05:32:50.310Z,1.8
2018-12-03T05:34:49.598Z,1.8
2018-12-03T05:36:50.123Z,2.1
2018-12-03T05:38:50.416Z,2.3
2018-12-03T05:40:49.467Z,2.2
2018-12-03T05:42:49.470Z,2.2
2018-12-03T05:44:49.694Z,2.4
2018-12-03T05:46:49.992Z,2.9
2018-12-03T05:48:50.116Z,2.0
2018-12-03T05:50:50.233Z,2.3
2018-12-03T05:52:50.361Z,2.3
2018-12-03T05:54:50.340Z,2.4
2018-12-03T05:56:49.930Z,2.4
2018-12-03T05:58:49.969Z,2.8
2018-12-03T06:00:50.073Z,2.8
2018-12-03T06:02:50.170Z,2.2
2018-12-03T06:04:49.712Z,2.0
2018-12-03T06:06:50.008Z,2.1
2018-12-03T06:08:50.061Z,2.3
2018-12-03T06:10:50.285Z,2.3
2018-12-03T06:12:50.405Z,1.5
2018-12-03T06:14:49.447Z,1.8
2018-12-03T06:16:49.859Z,1.8
2018-12-03T06:18:49.973Z,1.7
2018-12-03T06:20:50.097Z,1.7
2018-12-03T06:22:50.183Z,1.5
2018-12-03T06:24:50.334Z,2.3
2018-12-03T06:26:49.710Z,1.4
2018-12-03T06:28:49.916Z,1.4
2018-12-03T06:30:50.027Z,1.7
2018-12-03T06:32:50.104Z,2.5
2018-12-03T06:34:49.617Z,2.5
2018-12-03T06:36:50.367Z,2.2
2018-12-03T06:38:49.482Z,2.1
2018-12-03T06:40:49.634Z,2.1
2018-12-03T06:42:49.844Z,2.0
2018-12-03T06:44:49.973Z,4.2
2018-12-03T06:46:50.188Z,2.3
2018-12-03T06:48:50.229Z,3.1
2018-12-03T06:50:50.414Z,3.1
2018-12-03T06:52:49.550Z,5.1
2018-12-03T06:54:49.615Z,3.9
2018-12-03T06:56:50.117Z,4.1
2018-12-03T06:58:50.158Z,3.6
2018-12-03T07:00:50.206Z,3.6
2018-12-03T07:02:50.367Z,3.8
2018-12-03T07:04:50.021Z,3.5
2018-12-03T07:06:50.310Z,4.5
2018-12-03T07:08:49.465Z,4.5
2018-12-03T07:10:49.557Z,3.0
2018-12-03T07:12:49.668Z,1.6
2018-12-03T07:14:49.792Z,1.6
2018-12-03T07:16:49.993Z,3.8
2018-12-03T07:18:50.059Z,1.1
2018-12-03T07:20:50.148Z,1.7
2018-12-03T07:22:50.288Z,1.1
2018-12-03T07:24:50.412Z,1.5
2018-12-03T07:26:49.771Z,1.4
2018-12-03T07:28:49.884Z,1.4
2018-12-03T07:30:50.112Z,2.7
2018-12-03T07:32:50.377Z,1.5
2018-12-03T07:34:49.908Z,1.5
2018-12-03T07:36:50.280Z,1.7
2018-12-03T07:38:50.272Z,1.7
2018-12-03T07:40:50.422Z,0.8
2018-12-03T07:42:49.490Z,0.8
2018-12-03T07:44:49.629Z,1.0
2018-12-03T07:46:50.144Z,1.4
2018-12-03T07:48:50.173Z,1.4
2018-12-03T07:50:49.474Z,2.3
2018-12-03T07:52:49.740Z,1.9
2018-12-03T07:54:49.704Z,1.4
2018-12-03T07:56:49.874Z,1.4
2018-12-03T07:58:49.995Z,4.0
2018-12-03T08:00:50.131Z,2.2
2018-12-03T08:02:50.208Z,2.7
2018-12-03T08:04:49.734Z,2.7
2018-12-03T08:06:50.091Z,1.7
2018-12-03T08:08:50.154Z,2.2
2018-12-03T08:10:50.245Z,1.1
2018-12-03T08:12:50.300Z,1.1
2018-12-03T08:14:49.440Z,1.6
2018-12-03T08:16:49.655Z,1.6
2018-12-03T08:18:49.781Z,1.1
2018-12-03T08:20:49.921Z,1.1
2018-12-03T08:22:50.226Z,1.3
2018-12-03T08:24:50.426Z,1.3
2018-12-03T08:26:49.732Z,2.9
2018-12-03T08:28:49.812Z,2.9
2018-12-03T08:30:49.889Z,2.4
2018-12-03T08:32:49.962Z,1.2
2018-12-03T08:34:50.463Z,1.2
2018-12-03T08:36:49.918Z,1.2
2018-12-03T08:38:49.959Z,2.6
2018-12-03T08:40:50.032Z,2.6
2018-12-03T08:42:50.132Z,1.5
2018-12-03T08:44:50.184Z,1.4
2018-12-03T08:46:49.427Z,1.4
2018-12-03T08:48:49.710Z,2.2
2018-12-03T08:50:49.631Z,1.5
2018-12-03T08:52:49.879Z,1.5
2018-12-03T08:54:49.999Z,1.4
2018-12-03T08:56:50.350Z,1.7
2018-12-03T08:58:49.480Z,2.2
2018-12-03T09:00:49.520Z,2.0
2018-12-03T09:02:49.670Z,2.0
2018-12-03T09:04:50.006Z,2.8
2018-12-03T09:06:49.549Z,2.6
2018-12-03T09:08:49.619Z,2.8
2018-12-03T09:10:49.840Z,2.5
2018-12-03T09:12:49.911Z,2.5
2018-12-03T09:14:49.928Z,2.2
2018-12-03T09:16:50.275Z,2.0
2018-12-03T09:18:50.424Z,3.5
2018-12-03T09:20:49.752Z,3.5
2018-12-03T09:22:49.955Z,2.3
2018-12-03T09:24:50.021Z,2.3
2018-12-03T09:26:49.455Z,2.5
2018-12-03T09:28:49.562Z,1.7
2018-12-03T09:30:49.727Z,3.7
2018-12-03T09:32:49.788Z,1.8
2018-12-03T09:34:50.189Z,1.8
2018-12-03T09:36:49.582Z,2.0
2018-12-03T09:38:49.893Z,1.6
2018-12-03T09:40:50.020Z,2.6
2018-12-03T09:42:50.169Z,2.6
2018-12-03T09:44:50.303Z,1.5
2018-12-03T09:46:49.720Z,1.5
2018-12-03T09:48:49.891Z,3.6
2018-12-03T09:50:49.962Z,1.5
2018-12-03T09:52:50.102Z,1.5
2018-12-03T09:54:50.214Z,1.7
2018-12-03T09:56:49.571Z,1.1
2018-12-03T09:58:49.929Z,1.4
2018-12-03T10:00:50.149Z,2.7
2018-12-03T10:02:50.354Z,2.7
2018-12-03T10:04:49.983Z,1.3
2018-12-03T10:06:50.312Z,1.3
2018-12-03T10:08:50.416Z,1.2
2018-12-03T10:10:50.411Z,1.2
2018-12-03T10:12:49.426Z,2.7
2018-12-03T10:14:49.634Z,1.5
2018-12-03T10:16:49.901Z,1.6
2018-12-03T10:18:49.859Z,1.6
2018-12-03T10:20:49.946Z,1.6
2018-12-03T10:22:50.027Z,2.4
2018-12-03T10:24:50.146Z,1.3
2018-12-03T10:26:50.256Z,2.3
2018-12-03T10:28:50.239Z,2.3
2018-12-03T10:30:50.365Z,2.1
2018-12-03T10:32:49.722Z,2.4
2018-12-03T10:34:50.258Z,1.9
2018-12-03T10:36:49.609Z,3.3
2018-12-03T10:38:50.081Z,2.1
2018-12-03T10:40:50.190Z,2.1
2018-12-03T10:42:50.200Z,3.6
2018-12-03T10:44:50.278Z,2.1
2018-12-03T10:46:49.667Z,2.1
2018-12-03T10:48:49.659Z,2.2
2018-12-03T10:50:49.749Z,3.1
2018-12-03T10:52:50.014Z,2.6
2018-12-03T10:54:50.222Z,2.3
2018-12-03T10:56:49.486Z,2.2
2018-12-03T10:58:49.461Z,2.2
2018-12-03T11:00:49.665Z,1.9
2018-12-03T11:02:49.738Z,4.0
2018-12-03T11:04:49.598Z,3.6
2018-12-03T11:06:49.899Z,3.0
2018-12-03T11:08:49.949Z,3.0
2018-12-03T11:10:50.041Z,3.7
2018-12-03T11:12:50.224Z,3.9
2018-12-03T11:14:50.379Z,3.5
2018-12-03T11:16:49.739Z,3.5
2018-12-03T11:18:49.821Z,4.0
2018-12-03T11:20:49.932Z,3.0
2018-12-03T11:22:50.053Z,3.4
2018-12-03T11:24:50.087Z,3.6
2018-12-03T11:26:49.442Z,3.6
2018-12-03T11:28:49.578Z,3.1
2018-12-03T11:30:49.807Z,3.2
2018-12-03T11:32:49.834Z,3.9
2018-12-03T11:34:50.262Z,3.9
2018-12-03T11:36:49.461Z,2.9
2018-12-03T11:38:49.609Z,2.9
2018-12-03T11:40:49.899Z,3.6
2018-12-03T11:42:50.153Z,2.5
2018-12-03T11:44:50.237Z,2.5
2018-12-03T11:46:49.551Z,2.5
2018-12-03T11:48:49.795Z,1.9
2018-12-03T11:50:49.799Z,2.0
2018-12-03T11:52:49.897Z,2.7
2018-12-03T11:54:49.903Z,1.6
2018-12-03T11:56:50.197Z,2.3
2018-12-03T11:58:50.333Z,2.3
2018-12-03T12:00:50.427Z,1.7
2018-12-03T12:02:50.440Z,1.9
2018-12-03T12:04:50.028Z,3.5
2018-12-03T12:06:50.285Z,2.4
2018-12-03T12:08:50.373Z,2.4
2018-12-03T12:10:49.517Z,2.0
2018-12-03T12:12:49.667Z,2.0
2018-12-03T12:14:49.797Z,2.0
2018-12-03T12:16:50.171Z,1.6
2018-12-03T12:18:50.179Z,1.7
2018-12-03T12:20:50.384Z,2.6
2018-12-03T12:22:49.527Z,1.7
2018-12-03T12:24:49.667Z,1.0
2018-12-03T12:26:50.032Z,1.0
2018-12-03T12:28:50.177Z,1.1
2018-12-03T12:30:50.300Z,1.3
2018-12-03T12:32:50.431Z,1.1
2018-12-03T12:34:49.862Z,1.1
2018-12-03T12:36:50.107Z,1.5
2018-12-03T12:38:50.219Z,1.0
2018-12-03T12:40:50.284Z,1.0
2018-12-03T12:42:50.297Z,1.2
2018-12-03T12:44:50.432Z,1.2
2018-12-03T12:46:49.635Z,2.5
2018-12-03T12:48:49.924Z,1.0
2018-12-03T12:50:50.058Z,0.8
2018-12-03T12:52:50.278Z,1.7
2018-12-03T12:54:49.657Z,1.7
2018-12-03T12:56:50.085Z,0.9
2018-12-03T12:58:50.062Z,1.5
2018-12-03T13:00:50.003Z,0.9
2018-12-03T13:02:49.995Z,0.9
2018-12-03T13:04:50.405Z,1.2
2018-12-03T13:06:50.008Z,1.1
2018-12-03T13:08:49.554Z,1.2
2018-12-03T13:10:49.645Z,1.0
2018-12-03T13:12:49.622Z,1.0
2018-12-03T13:14:49.743Z,1.0
2018-12-03T13:16:49.804Z,1.5
2018-12-03T13:18:49.858Z,1.2
2018-12-03T13:20:49.803Z,1.2
2018-12-03T13:22:49.795Z,2.7
2018-12-03T13:24:49.792Z,2.7
2018-12-03T13:26:49.940Z,1.7
2018-12-03T13:28:49.954Z,0.9
2018-12-03T13:30:49.963Z,2.0
2018-12-03T13:32:49.886Z,2.0
2018-12-03T13:34:50.078Z,2.0
2018-12-03T13:36:50.104Z,1.2
2018-12-03T13:38:50.116Z,1.0
2018-12-03T13:40:50.120Z,1.3
2018-12-03T13:42:50.117Z,1.3
2018-12-03T13:44:50.040Z,1.9
2018-12-03T13:46:50.167Z,1.5
2018-12-03T13:48:50.162Z,3.4
2018-12-03T13:50:50.214Z,1.3
2018-12-03T13:52:50.235Z,1.3
2018-12-03T13:54:50.144Z,1.4
2018-12-03T13:56:50.255Z,1.4
2018-12-03T13:58:50.280Z,2.1
2018-12-03T14:00:50.211Z,2.1
2018-12-03T14:02:50.175Z,1.3
2018-12-03T14:04:49.661Z,2.7
2018-12-03T14:06:49.789Z,1.2
2018-12-03T14:08:49.769Z,1.2
2018-12-03T14:10:49.724Z,6.1
2018-12-03T14:12:49.701Z,6.1
2018-12-03T14:14:49.630Z,2.1
2018-12-03T14:16:50.245Z,6.2
2018-12-03T14:18:50.330Z,3.7
2018-12-03T14:20:50.254Z,3.7
2018-12-03T14:22:50.257Z,2.9
2018-12-03T14:24:50.169Z,4.7
2018-12-03T14:26:50.207Z,4.7
2018-12-03T14:28:50.127Z,2.5
2018-12-03T14:30:50.141Z,2.5
2018-12-03T14:32:50.104Z,1.7
2018-12-03T14:34:50.301Z,2.3
2018-12-03T14:36:50.432Z,1.3
2018-12-03T14:38:50.417Z,1.3
2018-12-03T14:40:50.335Z,3.2
2018-12-03T14:42:49.464Z,1.8
2018-12-03T14:44:50.429Z,2.3
2018-12-03T14:46:49.789Z,1.9
2018-12-03T14:48:49.754Z,2.0
2018-12-03T14:50:49.696Z,2.0
2018-12-03T14:52:49.617Z,1.7
2018-12-03T14:54:49.607Z,3.0
2018-12-03T14:56:49.805Z,2.3
2018-12-03T14:58:49.757Z,2.3
2018-12-03T15:00:49.741Z,2.3
2018-12-03T15:02:49.752Z,2.0
2018-12-03T15:04:49.984Z,3.5
2018-12-03T15:06:50.099Z,2.5
2018-12-03T15:08:50.094Z,2.5
2018-12-03T15:10:50.034Z,2.3
2018-12-03T15:12:50.424Z,5.4
2018-12-03T15:14:50.288Z,4.4
2018-12-03T15:16:49.516Z,4.0
2018-12-03T15:18:49.504Z,3.4
2018-12-03T15:20:49.462Z,3.4
2018-12-03T15:22:49.527Z,3.0
2018-12-03T15:24:49.467Z,3.0
2018-12-03T15:26:49.744Z,3.5
2018-12-03T15:28:49.787Z,3.8
2018-12-03T15:30:49.766Z,3.8
2018-12-03T15:32:49.694Z,2.7
2018-12-03T15:34:49.914Z,2.7
2018-12-03T15:36:50.043Z,3.7
2018-12-03T15:38:49.996Z,3.7
2018-12-03T15:40:49.995Z,2.8
2018-12-03T15:42:49.989Z,2.7
2018-12-03T15:44:49.974Z,2.7
2018-12-03T15:46:50.137Z,4.6
2018-12-03T15:48:50.102Z,3.3
2018-12-03T15:50:50.088Z,6.2
2018-12-03T15:52:50.048Z,3.7
2018-12-03T15:54:50.152Z,4.5
2018-12-03T15:56:50.288Z,4.5
2018-12-03T15:58:50.252Z,7.8
2018-12-03T16:00:50.260Z,4.1
2018-12-03T16:02:50.176Z,2.8
2018-12-03T16:04:49.447Z,3.6
2018-12-03T16:06:49.589Z,4.2
2018-12-03T16:08:49.616Z,4.2
2018-12-03T16:10:49.647Z,4.2
2018-12-03T16:12:49.685Z,5.7
2018-12-03T16:14:49.655Z,5.6
2018-12-03T16:16:49.773Z,5.6
2018-12-03T16:18:49.694Z,5.6
2018-12-03T16:20:49.618Z,4.1
2018-12-03T16:22:49.713Z,4.1
2018-12-03T16:24:49.683Z,2.3
2018-12-03T16:26:49.818Z,2.3
2018-12-03T16:28:49.820Z,2.9
2018-12-03T16:30:49.800Z,2.8
2018-12-03T16:32:49.805Z,2.2
2018-12-03T16:34:50.085Z,3.1
2018-12-03T16:36:50.248Z,3.1
2018-12-03T16:38:50.177Z,2.0
2018-12-03T16:40:50.177Z,2.3
2018-12-03T16:42:50.164Z,1.8
2018-12-03T16:44:50.121Z,1.8
2018-12-03T16:46:50.298Z,3.0
2018-12-03T16:48:49.464Z,2.1
2018-12-03T16:50:49.444Z,4.3
2018-12-03T16:52:49.451Z,2.4
2018-12-03T16:54:50.422Z,2.4
2018-12-03T16:56:49.604Z,3.9
2018-12-03T16:58:49.694Z,3.7
2018-12-03T17:00:49.671Z,3.8
2018-12-03T17:02:49.697Z,3.8
2018-12-03T17:04:49.915Z,3.5
2018-12-03T17:06:50.108Z,4.5
2018-12-03T17:08:50.053Z,5.3
2018-12-03T17:10:50.082Z,4.1
2018-12-03T17:12:50.061Z,4.2
2018-12-03T17:14:50.123Z,4.2
2018-12-03T17:16:50.323Z,4.5
2018-12-03T17:18:50.380Z,8.1
2018-12-03T17:20:50.439Z,5.5
2018-12-03T17:22:50.422Z,5.5
2018-12-03T17:24:49.439Z,5.5
2018-12-03T17:26:49.596Z,5.4
2018-12-03T17:28:49.604Z,5.9
2018-12-03T17:30:49.696Z,7.5
2018-12-03T17:32:49.724Z,7.9
2018-12-03T17:34:49.929Z,7.9
2018-12-03T17:36:50.113Z,7.0
2018-12-03T17:38:50.002Z,7.6
2018-12-03T17:40:49.966Z,7.1
2018-12-03T17:42:49.888Z,7.1
2018-12-03T17:44:49.839Z,6.0
2018-12-03T17:46:50.150Z,5.8
2018-12-03T17:48:50.100Z,6.2
2018-12-03T17:50:50.063Z,5.7
2018-12-03T17:52:50.021Z,5.7
2018-12-03T17:54:49.974Z,4.4
2018-12-03T17:56:50.163Z,5.8
2018-12-03T17:58:50.183Z,6.1
2018-12-03T18:00:50.143Z,7.2
2018-12-03T18:02:50.235Z,7.2
2018-12-03T18:04:49.457Z,6.6
2018-12-03T18:06:49.754Z,5.9
2018-12-03T18:08:49.667Z,6.7
2018-12-03T18:10:49.627Z,6.7
2018-12-03T18:12:49.655Z,5.8
2018-12-03T18:14:49.650Z,5.8
2018-12-03T18:16:49.971Z,6.3
2018-12-03T18:18:49.901Z,7.2
2018-12-03T18:20:49.848Z,7.2
2018-12-03T18:22:49.830Z,7.3
2018-12-03T18:24:49.799Z,8.2
2018-12-03T18:26:50.006Z,8.5
2018-12-03T18:28:49.970Z,8.0
2018-12-03T18:30:49.885Z,8.0
2018-12-03T18:32:49.857Z,10.1
2018-12-03T18:34:50.134Z,8.5
2018-12-03T18:36:50.293Z,9.5
2018-12-03T18:38:50.270Z,9.5
2018-12-03T18:40:50.242Z,9.4
2018-12-03T18:42:50.165Z,9.4
2018-12-03T18:44:50.122Z,12.7
2018-12-03T18:46:50.361Z,12.7
2018-12-03T18:48:50.265Z,14.2
2018-12-03T18:50:50.328Z,14.2
2018-12-03T18:52:50.281Z,16.1
2018-12-03T18:54:50.244Z,19.6
2018-12-03T18:56:50.415Z,20.7
2018-12-03T18:58:50.359Z,19.8
2018-12-03T19:00:50.445Z,19.8
2018-12-03T19:02:50.387Z,19.0
2018-12-03T19:04:49.764Z,17.2
2018-12-03T19:06:49.885Z,19.8
2018-12-03T19:08:49.884Z,19.5
2018-12-03T19:10:49.881Z,19.5
2018-12-03T19:12:49.965Z,19.5
2018-12-03T19:14:49.929Z,22.3
2018-12-03T19:16:50.106Z,24.3
2018-12-03T19:18:50.115Z,27.1
2018-12-03T19:20:50.090Z,27.1
2018-12-03T19:22:50.079Z,26.2
2018-12-03T19:24:50.107Z,30.9
2018-12-03T19:26:50.313Z,23.4
2018-12-03T19:28:50.275Z,25.3
2018-12-03T19:30:50.349Z,25.3
2018-12-03T19:32:50.304Z,25.4
2018-12-03T19:34:49.650Z,24.7
2018-12-03T19:36:49.743Z,28.2
2018-12-03T19:38:49.739Z,28.2
2018-12-03T19:40:49.715Z,24.8
2018-12-03T19:42:49.722Z,26.0
2018-12-03T19:44:49.736Z,22.9
2018-12-03T19:46:49.907Z,18.8
2018-12-03T19:48:49.919Z,18.8
2018-12-03T19:50:49.884Z,21.0
2018-12-03T19:52:49.829Z,22.1
2018-12-03T19:54:50.035Z,17.5
2018-12-03T19:56:50.237Z,17.5
2018-12-03T19:58:50.197Z,14.0
2018-12-03T20:00:50.160Z,10.8
2018-12-03T20:02:50.118Z,8.9
2018-12-03T20:04:49.496Z,8.9
2018-12-03T20:06:49.961Z,11.0
2018-12-03T20:08:49.968Z,11.0
2018-12-03T20:10:50.040Z,7.9
2018-12-03T20:12:50.036Z,9.0
2018-12-03T20:14:49.986Z,9.0
2018-12-03T20:16:50.157Z,10.0
2018-12-03T20:18:50.165Z,12.7
2018-12-03T20:20:50.109Z,10.1
2018-12-03T20:22:50.172Z,10.1
2018-12-03T20:24:50.155Z,8.6
2018-12-03T20:26:50.239Z,8.6
2018-12-03T20:28:50.216Z,10.0
2018-12-03T20:30:50.243Z,9.0
2018-12-03T20:32:50.239Z,9.3
2018-12-03T20:34:49.597Z,9.3
2018-12-03T20:36:49.921Z,10.4
2018-12-03T20:38:49.922Z,10.4
2018-12-03T20:40:49.919Z,13.1
2018-12-03T20:42:50.349Z,13.1
2018-12-03T20:44:50.419Z,15.2
2018-12-03T20:46:49.737Z,19.8
2018-12-03T20:48:49.757Z,19.7
2018-12-03T20:50:49.753Z,17.3
2018-12-03T20:52:49.812Z,16.5
2018-12-03T20:54:49.814Z,16.5
2018-12-03T20:56:50.162Z,18.1
2018-12-03T20:58:50.233Z,14.1
2018-12-03T21:00:50.183Z,14.1
2018-12-03T21:02:50.142Z,10.4
2018-12-03T21:04:49.643Z,11.4
2018-12-03T21:06:49.858Z,10.8
2018-12-03T21:08:49.780Z,10.8
2018-12-03T21:10:49.799Z,6.8
2018-12-03T21:12:49.796Z,6.2
2018-12-03T21:14:49.759Z,6.2
2018-12-03T21:16:49.885Z,6.1
2018-12-03T21:18:49.853Z,5.0
2018-12-03T21:20:49.850Z,3.9
2018-12-03T21:22:49.858Z,3.4
2018-12-03T21:24:49.847Z,3.4
2018-12-03T21:26:50.072Z,3.8
2018-12-03T21:28:50.055Z,3.1
2018-12-03T21:30:50.112Z,3.6
2018-12-03T21:32:50.202Z,3.4
2018-12-03T21:34:49.469Z,3.4
2018-12-03T21:36:49.622Z,3.1
2018-12-03T21:38:49.659Z,5.4
2018-12-03T21:40:49.689Z,3.6
2018-12-03T21:42:49.614Z,3.6
2018-12-03T21:44:49.605Z,3.4
2018-12-03T21:46:49.860Z,3.6
2018-12-03T21:48:49.829Z,3.4
2018-12-03T21:50:49.745Z,3.6
2018-12-03T21:52:49.734Z,3.6
2018-12-03T21:54:49.704Z,3.0
2018-12-03T21:56:49.881Z,2.7
2018-12-03T21:58:49.884Z,3.0
2018-12-03T22:00:49.896Z,2.4
2018-12-03T22:02:49.895Z,2.4
2018-12-03T22:04:50.220Z,1.9
2018-12-03T22:06:50.349Z,2.1
2018-12-03T22:08:50.323Z,1.6
2018-12-03T22:10:50.298Z,2.4
2018-12-03T22:12:50.426Z,2.4
2018-12-03T22:14:50.413Z,2.7
2018-12-03T22:16:49.627Z,2.7
2018-12-03T22:18:49.651Z,4.6
2018-12-03T22:20:49.599Z,1.1
2018-12-03T22:22:49.663Z,1.1
2018-12-03T22:24:49.638Z,2.3
2018-12-03T22:26:50.022Z,2.3
2018-12-03T22:28:50.033Z,5.0
2018-12-03T22:30:49.970Z,5.0
2018-12-03T22:32:49.949Z,2.9
2018-12-03T22:34:50.134Z,5.7
2018-12-03T22:36:50.354Z,2.9
2018-12-03T22:38:49.479Z,2.9
2018-12-03T22:40:49.433Z,2.4
2018-12-03T22:42:49.461Z,2.0
2018-12-03T22:44:49.570Z,1.6
2018-12-03T22:46:49.772Z,2.3
2018-12-03T22:48:49.761Z,2.3
2018-12-03T22:50:49.747Z,1.9
2018-12-03T22:52:49.739Z,1.0
2018-12-03T22:54:49.702Z,3.5
2018-12-03T22:56:49.749Z,3.5
2018-12-03T22:58:49.669Z,1.6
2018-12-03T23:00:49.678Z,1.6
2018-12-03T23:02:49.657Z,0.8
2018-12-03T23:04:50.087Z,0.7
2018-12-03T23:06:50.228Z,0.7
2018-12-03T23:08:50.142Z,1.0
2018-12-03T23:10:50.256Z,1.0
2018-12-03T23:12:50.264Z,2.0
2018-12-03T23:14:50.273Z,1.3
2018-12-03T23:16:49.434Z,0.7
2018-12-03T23:18:50.412Z,1.9
2018-12-03T23:20:49.484Z,1.9
2018-12-03T23:22:49.664Z,0.9
2018-12-03T23:24:49.671Z,1.9
2018-12-03T23:26:49.796Z,1.0
2018-12-03T23:28:49.818Z,1.0
2018-12-03T23:30:49.877Z,2.9
2018-12-03T23:32:49.857Z,1.1
2018-12-03T23:34:50.116Z,1.3
2018-12-03T23:36:50.321Z,1.1
2018-12-03T23:38:50.282Z,1.1
2018-12-03T23:40:50.357Z,2.1
2018-12-03T23:42:49.436Z,1.5
2018-12-03T23:44:49.446Z,1.0
2018-12-03T23:46:49.727Z,1.0
2018-12-03T23:48:49.666Z,1.2
2018-12-03T23:50:49.718Z,1.2
2018-12-03T23:52:49.761Z,1.2
2018-12-03T23:54:49.752Z,1.2
2018-12-03T23:56:49.979Z,2.6
2018-12-03T23:58:49.945Z,1.6
